Aérodrome :
LOGIN :

S'inscrire | Disclaimer

   EN    FR    IT 

 










Légende :    VFR   VFR Marginal   IFR   IFR Intensif   IFR Très Intensif
Visi : 
Plafond : 
>= 8 km
>= 3000ft
5 à 8 km
1000 à 3000 ft
1500m à 5 km
500 à 1000 ft
800 à 1500m
200 à 500 ft
< 800m
< 200 ft
Symboles :   Orages  Brouillard  Fortes neiges  Fortes précipitations  Vent > 20 kt
SIGMETs :   Divers  Orages  Givrage  Turbulence  Onde Orograph.  Cendres Volcan.






- Altitude de l'aérodrome : 233 ft
- Code IATA : REU


LERS - Reus Tarragona

DERNIER METAR :
  • 231930Z 26005KT CAVOK 09/M02 Q1006

METARs EXPIRÉS :
  • 231900Z 24003KT 200V280 CAVOK 09/M02 Q1006
  • 231830Z 23003KT CAVOK 10/M01 Q1006
  • 231800Z 27005KT CAVOK 13/M02 Q1006
  • 231730Z 25010KT 220V280 CAVOK 14/M02 Q1006
  • 231700Z 27009KT 240V300 CAVOK 15/M02 Q1006
  • 231630Z 26021KT CAVOK 16/M03 Q1005
  • 231600Z 26009KT 210V310 CAVOK 17/M01 Q1006
  • 231530Z 26014G24KT 220V310 CAVOK 16/M02 Q1005

TAF TAF LERS
Valide du 23 à 15h jusqu'au 24 à 15h UTC


231400Z 2315/2415 28014KT 9999 FEW020 TX15/2413Z TN05/2406Z
TEMPO 2315/2318 29018G30KT
BECMG 2317/2319 VRB03KT
BECMG 2407/2409 27013KT



MET'MAP, la Météo Aéronautique d'un coup d'oeil ! - Copyright ORBIFLY Décembre 2007 - Disclaimer

ORBIFLY MET'MAP TEAM :

Programmation & Développement : Alexandra Zaïnal
Sur une idée originale de : Baudouin d'Aumeries
Soutien technique & logistique : Manuel Goepfert
Assistance : Marc-Olivier Méhu




SOURCES & CREDITS :

   NOAA